createdAt,value
2023-04-25T00:02:11.072Z,5.63
2023-04-25T00:04:39.501Z,8.10
2023-04-25T00:07:07.238Z,7.60
2023-04-25T00:09:34.542Z,7.22
2023-04-25T00:12:02.579Z,5.05
2023-04-25T00:14:30.717Z,9.27
2023-04-25T00:16:57.634Z,7.50
2023-04-25T00:19:24.657Z,6.07
2023-04-25T00:21:51.765Z,6.72
2023-04-25T00:24:18.806Z,7.00
2023-04-25T00:26:45.924Z,6.10
2023-04-25T00:29:12.959Z,7.30
2023-04-25T00:31:40.006Z,6.47
2023-04-25T00:34:09.263Z,6.38
2023-04-25T00:36:37.334Z,9.88
2023-04-25T00:39:05.718Z,7.38
2023-04-25T00:41:34.416Z,6.70
2023-04-25T00:44:02.574Z,9.27
2023-04-25T00:46:30.088Z,6.50
2023-04-25T00:48:57.108Z,7.57
2023-04-25T00:51:26.198Z,10.07
2023-04-25T00:53:53.505Z,5.55
2023-04-25T00:56:21.393Z,6.13
2023-04-25T00:58:49.502Z,5.78
2023-04-25T01:01:17.605Z,6.40
2023-04-25T01:03:48.044Z,6.85
2023-04-25T01:06:15.153Z,6.63
2023-04-25T01:08:44.210Z,7.30
2023-04-25T01:11:11.249Z,6.40
2023-04-25T01:13:38.259Z,6.47
2023-04-25T01:16:06.766Z,6.18
2023-04-25T01:18:34.263Z,4.70
2023-04-25T01:21:12.165Z,4.10
2023-04-25T01:23:41.652Z,4.93
2023-04-25T01:26:11.284Z,4.15
2023-04-25T01:31:06.940Z,5.25
2023-04-25T01:33:34.300Z,4.38
2023-04-25T01:36:01.445Z,3.47
2023-04-25T01:38:28.528Z,4.78
2023-04-25T01:40:56.415Z,5.35
2023-04-25T01:43:24.724Z,4.47
2023-04-25T01:46:14.450Z,5.13
2023-04-25T01:51:09.126Z,4.30
2023-04-25T01:53:36.161Z,4.93
2023-04-25T01:56:04.762Z,4.45
2023-04-25T01:58:34.924Z,4.75
2023-04-25T02:01:14.151Z,6.13
2023-04-25T02:03:47.303Z,4.90
2023-04-25T02:06:23.618Z,5.15
2023-04-25T02:08:52.471Z,4.85
2023-04-25T02:11:19.483Z,4.57
2023-04-25T02:13:55.096Z,3.92
2023-04-25T02:16:37.217Z,3.72
2023-04-25T02:19:04.293Z,5.25
2023-04-25T02:21:31.605Z,5.50
2023-04-25T02:23:58.958Z,4.50
2023-04-25T02:26:28.966Z,6.55
2023-04-25T02:28:56.033Z,5.20
2023-04-25T02:31:23.220Z,5.65
2023-04-25T02:33:51.849Z,4.55
2023-04-25T02:36:19.196Z,7.47
2023-04-25T02:38:46.378Z,3.88
2023-04-25T02:41:13.519Z,4.47
2023-04-25T02:43:40.616Z,5.75
2023-04-25T02:46:07.687Z,6.50
2023-04-25T02:48:34.690Z,4.93
2023-04-25T02:51:01.664Z,4.43
2023-04-25T02:53:29.186Z,7.57
2023-04-25T02:55:59.323Z,4.40
2023-04-25T02:58:26.571Z,5.70
2023-04-25T03:00:55.330Z,4.20
2023-04-25T03:03:25.294Z,5.45
2023-04-25T03:05:53.490Z,5.30
2023-04-25T03:08:26.342Z,4.97
2023-04-25T03:10:56.640Z,5.53
2023-04-25T03:13:25.416Z,5.43
2023-04-25T03:15:52.454Z,5.57
2023-04-25T03:18:19.758Z,4.45
2023-04-25T03:20:47.730Z,4.95
2023-04-25T03:23:15.401Z,5.65
2023-04-25T03:25:43.305Z,8.63
2023-04-25T03:28:10.716Z,7.38
2023-04-25T03:30:37.907Z,6.65
2023-04-25T03:33:05.018Z,5.97
2023-04-25T03:35:32.041Z,7.40
2023-04-25T03:37:59.039Z,6.88
2023-04-25T03:40:30.569Z,6.18
2023-04-25T03:43:20.452Z,7.20
2023-04-25T03:50:14.617Z,5.70
2023-04-25T03:52:41.573Z,10.25
2023-04-25T03:55:09.693Z,9.98
2023-04-25T03:57:37.338Z,7.85
2023-04-25T04:00:05.329Z,7.10
2023-04-25T04:02:41.875Z,8.65
2023-04-25T04:05:11.746Z,6.30
2023-04-25T04:07:43.928Z,10.07
2023-04-25T04:10:12.953Z,8.43
2023-04-25T04:12:41.203Z,11.65
2023-04-25T04:15:08.908Z,6.65
2023-04-25T04:17:36.720Z,7.50
2023-04-25T04:20:04.834Z,9.98
2023-04-25T04:22:32.851Z,5.93
2023-04-25T04:25:06.940Z,6.63
2023-04-25T04:27:57.176Z,8.30
2023-04-25T04:30:43.527Z,5.93
2023-04-25T04:33:10.622Z,10.90
2023-04-25T04:35:38.315Z,7.50
2023-04-25T04:38:05.596Z,7.93
2023-04-25T04:40:35.918Z,6.80
2023-04-25T04:43:12.350Z,6.75
2023-04-25T04:45:52.259Z,8.63
2023-04-25T04:48:41.219Z,7.90
2023-04-25T04:51:22.431Z,6.57
2023-04-25T04:54:03.420Z,8.57
2023-04-25T04:56:46.787Z,10.10
2023-04-25T04:59:34.390Z,8.77
2023-04-25T05:02:14.452Z,10.07
2023-04-25T05:04:53.003Z,9.70
2023-04-25T05:07:40.247Z,9.98
2023-04-25T05:10:27.769Z,9.30
2023-04-25T05:13:11.137Z,13.07
2023-04-25T05:16:04.618Z,14.55
2023-04-25T05:18:40.200Z,9.57
2023-04-25T05:21:23.537Z,11.20
2023-04-25T05:24:16.567Z,13.52
2023-04-25T05:27:03.733Z,10.77
2023-04-25T05:29:56.783Z,9.38
2023-04-25T05:32:36.721Z,9.68
2023-04-25T05:35:04.332Z,8.20
2023-04-25T05:37:37.556Z,7.75
2023-04-25T05:40:11.314Z,9.77
2023-04-25T05:42:57.084Z,11.55
2023-04-25T05:45:44.263Z,9.18
2023-04-25T05:48:49.604Z,10.00
2023-04-25T05:51:51.994Z,8.43
2023-04-25T05:54:39.271Z,9.40
2023-04-25T05:57:06.263Z,8.25
2023-04-25T05:59:33.885Z,7.82
2023-04-25T06:02:01.965Z,11.20
2023-04-25T06:04:32.163Z,9.30
2023-04-25T06:06:59.236Z,9.52
2023-04-25T06:09:27.595Z,10.82
2023-04-25T06:11:55.013Z,10.05
2023-04-25T06:14:21.999Z,9.15
2023-04-25T06:16:50.893Z,8.88
2023-04-25T06:19:17.872Z,8.43
2023-04-25T06:21:45.548Z,9.20
2023-04-25T06:24:12.806Z,9.68
2023-04-25T06:26:39.828Z,11.57
2023-04-25T06:29:07.292Z,10.35
2023-04-25T06:31:34.965Z,9.80
2023-04-25T06:34:02.162Z,11.02
2023-04-25T06:36:31.462Z,10.25
2023-04-25T06:39:04.857Z,11.70
2023-04-25T06:41:33.520Z,6.70
2023-04-25T06:44:02.997Z,9.18
2023-04-25T06:46:51.269Z,9.70
2023-04-25T06:49:19.364Z,11.35
2023-04-25T06:51:46.390Z,10.93
2023-04-25T06:54:13.562Z,11.18
2023-04-25T06:56:49.149Z,10.63
2023-04-25T06:59:16.237Z,10.07
2023-04-25T07:01:45.550Z,8.90
2023-04-25T07:04:17.366Z,11.55
2023-04-25T07:06:51.839Z,39.88
2023-04-25T07:09:23.845Z,20.90
2023-04-25T07:11:52.125Z,17.08
2023-04-25T07:14:24.402Z,18.05
2023-04-25T07:16:51.530Z,13.98
2023-04-25T07:19:19.893Z,11.20
2023-04-25T07:21:46.927Z,7.07
2023-04-25T07:24:14.139Z,7.38
2023-04-25T07:26:45.977Z,8.85
2023-04-25T07:29:25.863Z,7.45
2023-04-25T07:31:52.897Z,7.97
2023-04-25T07:34:21.386Z,10.45
2023-04-25T07:36:48.378Z,10.93
2023-04-25T07:39:16.016Z,7.20
2023-04-25T07:41:43.152Z,7.70
2023-04-25T07:44:15.101Z,8.02
2023-04-25T07:46:42.088Z,7.57
2023-04-25T07:49:10.057Z,7.60
2023-04-25T07:51:37.098Z,8.25
2023-04-25T07:54:09.502Z,5.88
2023-04-25T07:56:51.443Z,7.15
2023-04-25T07:59:19.709Z,7.00
2023-04-25T08:01:47.182Z,6.38
2023-04-25T08:04:15.006Z,8.60
2023-04-25T08:06:54.788Z,6.95
2023-04-25T08:09:28.271Z,6.25
2023-04-25T08:11:56.561Z,6.95
2023-04-25T08:14:28.352Z,8.85
2023-04-25T08:16:55.407Z,11.27
2023-04-25T08:19:22.449Z,8.25
2023-04-25T08:21:49.511Z,8.30
2023-04-25T08:24:21.682Z,10.98
2023-04-25T08:26:48.842Z,9.88
2023-04-25T08:29:18.343Z,9.10
2023-04-25T08:31:45.623Z,11.13
2023-04-25T08:34:13.922Z,11.50
2023-04-25T08:36:46.098Z,10.27
2023-04-25T08:39:28.483Z,15.50
2023-04-25T08:42:22.973Z,11.98
2023-04-25T08:44:51.123Z,13.65
2023-04-25T08:47:22.711Z,12.50
2023-04-25T08:49:55.071Z,13.18
2023-04-25T08:52:24.627Z,17.20
2023-04-25T08:54:54.023Z,17.92
2023-04-25T08:57:22.288Z,12.25
2023-04-25T08:59:50.361Z,11.25
2023-04-25T09:02:21.087Z,9.50
2023-04-25T09:04:51.035Z,12.35
2023-04-25T09:07:22.185Z,11.85
2023-04-25T09:09:49.395Z,12.10
2023-04-25T09:12:21.845Z,11.38
2023-04-25T09:15:06.534Z,10.02
2023-04-25T09:17:57.926Z,11.13
2023-04-25T09:20:27.761Z,9.57
2023-04-25T09:23:06.452Z,8.48
2023-04-25T09:25:39.825Z,9.88
2023-04-25T09:28:08.475Z,8.00
2023-04-25T09:30:37.590Z,10.35
2023-04-25T09:33:20.744Z,8.70
2023-04-25T09:38:49.458Z,7.33
2023-04-25T09:41:30.412Z,8.35
2023-04-25T09:44:01.973Z,8.65
2023-04-25T09:46:37.898Z,8.15
2023-04-25T09:49:09.361Z,8.93
2023-04-25T09:51:58.011Z,7.55
2023-04-25T09:54:28.110Z,10.88
2023-04-25T09:57:14.352Z,9.82
2023-04-25T09:59:46.164Z,6.55
2023-04-25T10:02:15.915Z,9.77
2023-04-25T10:04:48.502Z,10.65
2023-04-25T10:07:39.949Z,9.20
2023-04-25T10:10:14.530Z,7.55
2023-04-25T10:12:43.931Z,9.20
2023-04-25T10:15:11.930Z,7.68
2023-04-25T10:17:39.748Z,6.85
2023-04-25T10:20:11.843Z,7.28
2023-04-25T10:22:49.398Z,8.20
2023-04-25T10:25:16.678Z,6.53
2023-04-25T10:27:44.342Z,7.45
2023-04-25T10:30:16.647Z,5.45
2023-04-25T10:32:44.726Z,6.68
2023-04-25T10:35:20.150Z,5.80
2023-04-25T10:38:14.693Z,5.00
2023-04-25T10:40:41.741Z,6.45
2023-04-25T10:43:34.705Z,5.53
2023-04-25T10:46:01.991Z,9.48
2023-04-25T10:48:30.758Z,6.45
2023-04-25T10:51:16.810Z,7.45
2023-04-25T10:53:46.245Z,5.20
2023-04-25T10:56:21.345Z,6.82
2023-04-25T10:58:51.348Z,8.82
2023-04-25T11:01:26.469Z,5.60
2023-04-25T11:04:58.062Z,4.88
2023-04-25T11:07:36.107Z,4.78
2023-04-25T11:10:05.273Z,4.32
2023-04-25T11:12:33.405Z,5.38
2023-04-25T11:15:08.454Z,4.43
2023-04-25T11:17:35.782Z,3.78
2023-04-25T11:20:07.585Z,4.47
2023-04-25T11:22:35.110Z,4.68
2023-04-25T11:25:10.129Z,4.78
2023-04-25T11:27:58.301Z,4.35
2023-04-25T11:30:27.067Z,4.78
2023-04-25T11:32:54.387Z,4.20
2023-04-25T11:35:24.230Z,5.50
2023-04-25T11:38:03.675Z,5.75
2023-04-25T11:40:32.099Z,2.88
2023-04-25T11:43:01.715Z,3.92
2023-04-25T11:45:31.040Z,3.13
2023-04-25T11:48:37.648Z,5.57
2023-04-25T11:51:05.692Z,4.18
2023-04-25T11:57:28.039Z,4.68
2023-04-25T11:59:55.293Z,5.72
2023-04-25T12:02:27.386Z,4.22
2023-04-25T12:04:54.720Z,5.13
2023-04-25T12:07:23.832Z,5.55
2023-04-25T12:09:54.743Z,3.70
2023-04-25T12:12:21.732Z,5.57
2023-04-25T12:14:50.072Z,3.80
2023-04-25T12:17:20.393Z,4.15
2023-04-25T12:19:48.359Z,4.28
2023-04-25T12:22:26.031Z,3.53
2023-04-25T12:24:55.102Z,5.30
2023-04-25T12:27:22.687Z,4.05
2023-04-25T12:29:57.416Z,5.15
2023-04-25T12:32:24.869Z,6.22
2023-04-25T12:34:51.974Z,3.72
2023-04-25T12:37:19.382Z,3.67
2023-04-25T12:39:46.322Z,4.63
2023-04-25T12:42:13.560Z,3.80
2023-04-25T12:44:41.443Z,3.90
2023-04-25T12:47:08.803Z,3.63
2023-04-25T12:49:36.363Z,5.70
2023-04-25T12:52:03.595Z,4.47
2023-04-25T12:54:30.741Z,5.70
2023-04-25T12:56:58.330Z,4.78
2023-04-25T12:59:25.326Z,6.25
2023-04-25T13:01:52.411Z,4.82
2023-04-25T13:04:21.431Z,5.32
2023-04-25T13:07:03.419Z,4.90
2023-04-25T13:09:30.582Z,4.78
2023-04-25T13:11:59.367Z,5.55
2023-04-25T13:14:26.473Z,6.63
2023-04-25T13:16:53.596Z,5.65
2023-04-25T13:19:20.904Z,6.32
2023-04-25T13:21:47.917Z,7.40
2023-04-25T13:24:14.907Z,5.10
2023-04-25T13:26:41.971Z,4.20
2023-04-25T13:29:08.965Z,4.93
2023-04-25T13:31:36.213Z,6.60
2023-04-25T13:34:03.348Z,6.15
2023-04-25T13:36:30.599Z,6.25
2023-04-25T13:38:58.290Z,6.78
2023-04-25T13:41:33.217Z,9.00
2023-04-25T13:44:00.983Z,5.15
2023-04-25T13:46:44.891Z,5.03
2023-04-25T13:49:13.788Z,6.13
2023-04-25T13:51:44.632Z,6.78
2023-04-25T13:54:11.990Z,9.48
2023-04-25T13:56:39.680Z,7.53
2023-04-25T13:59:06.834Z,7.28
2023-04-25T14:01:35.575Z,7.25
2023-04-25T14:04:05.046Z,5.63
2023-04-25T14:06:33.206Z,8.98
2023-04-25T14:09:02.264Z,7.85
2023-04-25T14:11:29.339Z,3.30
2023-04-25T14:13:56.305Z,3.50
2023-04-25T14:16:24.484Z,6.13
2023-04-25T14:18:51.777Z,5.82
2023-04-25T14:21:18.828Z,4.63
2023-04-25T14:23:51.839Z,4.25
2023-04-25T14:26:19.426Z,5.45
2023-04-25T14:28:46.526Z,6.43
2023-04-25T14:31:13.581Z,4.05
2023-04-25T14:34:06.712Z,4.40
2023-04-25T14:36:34.731Z,5.60
2023-04-25T14:39:02.126Z,5.65
2023-04-25T14:41:29.307Z,4.95
2023-04-25T14:43:57.962Z,7.93
2023-04-25T14:46:25.525Z,5.47
2023-04-25T14:48:52.742Z,6.05
2023-04-25T14:51:20.231Z,6.68
2023-04-25T14:53:47.286Z,5.53
2023-04-25T14:56:14.553Z,8.20
2023-04-25T14:58:42.036Z,6.15
2023-04-25T15:01:11.362Z,8.75
2023-04-25T15:07:59.655Z,5.28
2023-04-25T15:10:38.352Z,7.22
2023-04-25T15:13:07.315Z,6.43
2023-04-25T15:15:53.237Z,8.63
2023-04-25T15:18:31.248Z,7.05
2023-04-25T15:20:59.398Z,6.10
2023-04-25T15:23:29.724Z,6.57
2023-04-25T15:25:57.558Z,5.57
2023-04-25T15:28:24.553Z,5.43
2023-04-25T15:30:51.681Z,5.72
2023-04-25T15:33:18.769Z,7.82
2023-04-25T15:35:46.108Z,7.10
2023-04-25T15:38:13.333Z,6.13
2023-04-25T15:40:41.292Z,7.07
2023-04-25T15:43:11.633Z,7.30
2023-04-25T15:45:38.696Z,7.50
2023-04-25T15:48:06.256Z,9.15
2023-04-25T15:50:33.562Z,8.52
2023-04-25T15:53:00.701Z,7.35
2023-04-25T15:55:27.912Z,8.50
2023-04-25T15:57:55.132Z,7.18
2023-04-25T16:00:22.981Z,8.52
2023-04-25T16:02:50.304Z,7.55
2023-04-25T16:05:18.477Z,7.40
2023-04-25T16:07:47.047Z,7.97
2023-04-25T16:10:17.220Z,8.65
2023-04-25T16:12:44.439Z,7.38
2023-04-25T16:15:11.786Z,9.10
2023-04-25T16:17:38.728Z,7.28
2023-04-25T16:20:15.266Z,9.60
2023-04-25T16:22:43.654Z,6.55
2023-04-25T16:25:12.546Z,9.52
2023-04-25T16:27:41.269Z,9.93
2023-04-25T16:30:10.288Z,7.47
2023-04-25T16:32:38.276Z,6.33
2023-04-25T16:35:05.765Z,7.68
2023-04-25T16:37:32.808Z,8.05
2023-04-25T16:39:59.805Z,7.88
2023-04-25T16:42:26.926Z,7.75
2023-04-25T16:44:53.916Z,5.70
2023-04-25T16:47:25.745Z,8.43
2023-04-25T16:49:53.358Z,8.60
2023-04-25T16:52:22.087Z,7.97
2023-04-25T16:54:49.230Z,7.00
2023-04-25T16:57:16.578Z,9.00
2023-04-25T16:59:43.573Z,7.38
2023-04-25T17:02:13.162Z,9.00
2023-04-25T17:07:08.933Z,6.90
2023-04-25T17:09:36.444Z,7.60
2023-04-25T17:12:04.691Z,6.35
2023-04-25T17:14:40.318Z,6.35
2023-04-25T17:19:50.227Z,7.18
2023-04-25T17:22:18.167Z,9.25
2023-04-25T17:24:46.054Z,6.95
2023-04-25T17:27:13.078Z,9.80
2023-04-25T17:29:40.143Z,6.00
2023-04-25T17:32:07.505Z,6.68
2023-04-25T17:34:37.586Z,7.93
2023-04-25T17:37:55.314Z,8.40
2023-04-25T17:40:22.587Z,7.28
2023-04-25T17:42:50.297Z,8.45
2023-04-25T17:45:17.513Z,9.30
2023-04-25T17:47:44.585Z,8.13
2023-04-25T17:50:12.826Z,7.32
2023-04-25T17:52:39.913Z,9.27
2023-04-25T17:55:07.403Z,8.98
2023-04-25T17:57:34.619Z,9.55
2023-04-25T18:00:02.873Z,7.43
2023-04-25T18:02:39.730Z,11.98
2023-04-25T18:05:09.904Z,8.88
2023-04-25T18:07:37.335Z,9.00
2023-04-25T18:10:09.085Z,8.38
2023-04-25T18:12:37.177Z,8.80
2023-04-25T18:15:08.032Z,6.95
2023-04-25T18:17:40.164Z,8.63
2023-04-25T18:20:11.972Z,9.75
2023-04-25T18:22:39.147Z,8.40
2023-04-25T18:25:08.395Z,9.98
2023-04-25T18:27:35.699Z,8.45
2023-04-25T18:30:02.669Z,8.93
2023-04-25T18:32:29.970Z,8.00
2023-04-25T18:34:57.112Z,11.85
2023-04-25T18:37:24.137Z,11.10
2023-04-25T18:39:52.021Z,9.60
2023-04-25T18:42:20.211Z,10.27
2023-04-25T18:44:47.336Z,8.65
2023-04-25T18:47:14.710Z,11.95
2023-04-25T18:49:42.296Z,12.10
2023-04-25T18:52:12.308Z,13.95
2023-04-25T18:54:39.574Z,9.00
2023-04-25T18:57:06.574Z,10.50
2023-04-25T18:59:33.841Z,7.35
2023-04-25T19:02:02.106Z,9.15
2023-04-25T19:04:29.787Z,9.43
2023-04-25T19:06:56.923Z,15.02
2023-04-25T19:09:24.941Z,12.25
2023-04-25T19:12:56.024Z,13.30
2023-04-25T19:15:22.970Z,11.75
2023-04-25T19:17:50.092Z,12.65
2023-04-25T19:20:17.168Z,11.48
2023-04-25T19:22:44.109Z,12.68
2023-04-25T19:25:11.539Z,12.45
2023-04-25T19:27:39.087Z,12.02
2023-04-25T19:30:09.441Z,10.98
2023-04-25T19:32:37.676Z,11.43
2023-04-25T19:35:05.013Z,11.98
2023-04-25T19:37:32.290Z,8.48
2023-04-25T19:39:59.358Z,14.30
2023-04-25T19:42:26.434Z,12.63
2023-04-25T19:44:53.813Z,15.15
2023-04-25T19:47:20.800Z,11.10
2023-04-25T19:49:47.761Z,15.93
2023-04-25T19:52:16.363Z,14.90
2023-04-25T19:54:45.353Z,12.95
2023-04-25T19:57:13.561Z,15.80
2023-04-25T19:59:40.802Z,10.02
2023-04-25T20:02:10.852Z,11.32
2023-04-25T20:04:38.715Z,12.80
2023-04-25T20:07:05.720Z,11.40
2023-04-25T20:09:32.628Z,9.68
2023-04-25T20:11:59.610Z,12.52
2023-04-25T20:14:26.595Z,11.45
2023-04-25T20:16:53.999Z,9.25
2023-04-25T20:19:20.998Z,10.40
2023-04-25T20:21:47.992Z,10.73
2023-04-25T20:24:14.908Z,11.57
2023-04-25T20:26:41.874Z,10.55
2023-04-25T20:29:09.891Z,9.30
2023-04-25T20:31:37.201Z,10.07
2023-04-25T20:34:04.441Z,7.35
2023-04-25T20:36:32.420Z,10.18
2023-04-25T20:38:59.415Z,9.18
2023-04-25T20:41:52.745Z,12.10
2023-04-25T20:44:22.771Z,7.93
2023-04-25T20:46:51.705Z,7.68
2023-04-25T20:49:18.639Z,5.27
2023-04-25T20:51:45.893Z,9.60
2023-04-25T20:54:13.512Z,10.25
2023-04-25T20:56:40.546Z,6.78
2023-04-25T20:59:07.519Z,10.65
2023-04-25T21:01:35.434Z,10.93
2023-04-25T21:04:03.028Z,9.52
2023-04-25T21:06:30.632Z,8.70
2023-04-25T21:08:58.001Z,10.05
2023-04-25T21:11:26.621Z,11.57
2023-04-25T21:13:54.349Z,6.47
2023-04-25T21:16:21.852Z,10.40
2023-04-25T21:18:49.423Z,8.70
2023-04-25T21:21:17.107Z,8.45
2023-04-25T21:23:44.161Z,9.82
2023-04-25T21:26:11.154Z,7.88
2023-04-25T21:28:38.106Z,9.32
2023-04-25T21:31:05.358Z,6.47
2023-04-25T21:34:26.597Z,10.43
2023-04-25T21:36:53.562Z,9.40
2023-04-25T21:39:20.516Z,13.13
2023-04-25T21:41:48.479Z,14.45
2023-04-25T21:44:15.828Z,7.97
2023-04-25T21:46:43.063Z,12.55
2023-04-25T21:49:10.107Z,12.82
2023-04-25T21:51:37.060Z,12.73
2023-04-25T21:54:05.767Z,11.27
2023-04-25T21:56:33.337Z,10.27
2023-04-25T21:59:00.348Z,10.15
2023-04-25T22:01:28.561Z,11.90
2023-04-25T22:03:55.752Z,13.30
2023-04-25T22:06:22.915Z,11.20
2023-04-25T22:08:50.152Z,8.07
2023-04-25T22:11:17.459Z,14.10
2023-04-25T22:13:45.575Z,9.85
2023-04-25T22:16:12.737Z,10.20
2023-04-25T22:18:40.627Z,9.13
2023-04-25T22:21:08.824Z,10.30
2023-04-25T22:23:37.252Z,10.32
2023-04-25T22:26:04.976Z,13.95
2023-04-25T22:28:33.173Z,9.45
2023-04-25T22:31:00.264Z,10.05
2023-04-25T22:33:27.564Z,11.38
2023-04-25T22:35:55.804Z,13.60
2023-04-25T22:38:22.793Z,11.32
2023-04-25T22:40:49.784Z,11.48
2023-04-25T22:43:16.821Z,10.52
2023-04-25T22:45:43.813Z,9.77
2023-04-25T22:48:10.853Z,11.02
2023-04-25T22:50:40.507Z,9.90
2023-04-25T22:55:36.831Z,8.68
2023-04-25T22:58:04.652Z,15.65
2023-04-25T23:00:34.461Z,13.20
2023-04-25T23:03:03.966Z,13.52
2023-04-25T23:08:00.113Z,15.17
2023-04-25T23:10:28.613Z,10.15
2023-04-25T23:12:58.228Z,11.07
2023-04-25T23:17:58.679Z,14.55
2023-04-25T23:20:26.250Z,12.55
2023-04-25T23:22:53.313Z,9.48
2023-04-25T23:25:20.888Z,10.27
2023-04-25T23:27:48.604Z,11.60
2023-04-25T23:30:15.955Z,10.35
2023-04-25T23:32:43.098Z,12.20
2023-04-25T23:35:10.397Z,13.00
2023-04-25T23:37:38.376Z,10.65
2023-04-25T23:40:12.843Z,8.23
2023-04-25T23:42:41.836Z,13.18
2023-04-25T23:45:09.636Z,11.15
2023-04-25T23:47:37.629Z,9.23
2023-04-25T23:50:05.409Z,10.70
2023-04-25T23:52:32.459Z,13.20
2023-04-25T23:54:59.449Z,10.90
2023-04-25T23:57:26.525Z,9.80
2023-04-25T23:59:53.581Z,16.15
